Ana Sayfa
METAR-TAF:

METAR-TAF

Havaalanları :

Guilin, Çin

Enlem: 25-20N, Boylam: 110-18E, yükseklik: 166 m

Güncel hava durumu gözlemi

Rapor saat 10:00 UTC de 47 dakika önce yapıldı.
Rüzgar kuzeydoğudan 4 kt, kuzey ve doğu/kuzeydoğu arasında değişken
Sıcaklık 5°C
Nem 87%
Basınç 1025 hPa
Görüş mesafesi 10 km veya daha fazla
800 ft yükseklikte az bulutlu
2300 ft yükseklikte parçalı bulutlu
4000 ft yükseklikte çok bulutlu

METAR: ZGKL 101000Z 04002MPS 010V070 9999 FEW008 SCT023 OVC040 05/03 Q1025 NOSIG

Saat: 18:47 (10:47 UTC)

Tahmin

Rapor saat 03:12 UTC de 7 saat ve 35 dakika önce yapıldı.
Ayın 10'si saat 06 UTC'den ayın 11'si saat 06 UTC'ye kadar geçerli Tahmin
Rüzgar kuzeydoğudan 6 kt
Görüş mesafesi: 5000 m
800 ft yükseklikte az bulutlu
2000 ft yükseklikte parçalı bulutlu
4000 ft yükseklikte çok bulutlu
hafif yağmur, Pus

TAF: ZGKL 100312Z 1006/1106 05003MPS 5000 -RA BR FEW008 SCT020 OVC040 TX06/1007Z TN03/1022Z

4.000'den fazla havaalanı için hava durumu gözlemleri ve tahminleri (METAR ve TAF raporları).

Kullanılabilir istasyonlar harita üzerinde sarı ve kırmızı noktalarla gösterilir.

İstasyonun adını görmek için fareyi noktanın üzerinde gezdirin.

Sonrasında hava gözlem ve tahminlerini görmek için tıklayın.

Haritayı değiştirmek için: yaklaştırmak için siyah artı işaretli yeşil düğmeye ve uzaklaştırmak için de eksi işaretli düğmeye hızla tıklayın; bitişik haritalar için yeşil okları kullanın.


METAR-TAF: